Hlavní strana
METAR-TAF:

METAR-TAF

Letiště :

Daşoguz, Turkmenistán

zeměpisná šířka: 41-45-53N, zeměpisná délka: 059-49-59E, výška: 83 m

Aktuální stav počasí

Zpráva byla vytvořena před 27 minutami, v 23:00 UTC
Východní vítr 8 kt
Teplota 5°C
Vlhkost vzduchu 70%
Tlak 1021 hPa
Viditelnost 10 km a více
Žádná oblačnost pod 1500 m, nevyskytují se cumulonimby.

METAR: UTAT 202300Z 10008KT CAVOK 05/00 Q1021 R08/CLRD70 NOSIG

Čas: 04:27 (23:27 UTC)

Předpověď počasí

Zpráva byla vytvořena před 6 hodinami a 51 minutami, v 16:36 UTC
Předpověď platná od 20 v 18 UTC do 21 v 18 UTC
Východní vítr 12 kt
Viditelnost 10 km a více
Žádná oblačnost pod 1500 m, nevyskytují se cumulonimby.
Dočasný
od 20 v 18 UTC do 20 v 24 UTC
Jihovýchodní vítr 12 kt

TAF: UTAT 201636Z 2018/2118 09012KT CAVOK 530005 TEMPO 2018/2024 14012KT

Stav a předpovědi počasí z více než 4 000 letišť (zprávy METAR a TAF).

Červené a žluté tečky na mapě představují dostupné meteorologické stanice.

Když kurzor umístíte na tečku, zobrazí se název stanice.

Pak kliknutím zobrazíte stav a předpověď počasí.

Chcete-li změnit mapu, kliknutím na zelené tlačítko se znaménkem +mapu přiblížíte, kliknutím na zelené tlačítko se znaménkem – mapu oddálíte a kliknutím na zelené šipky přejdete na sousední mapy.


METAR-TAF: